sensor_id;sensor_type;location;lat;lon;timestamp;temperature;humidity
5705;DHT22;2877;48.238;11.160;2023-06-22T00:02:06;19.50;99.90
5705;DHT22;2877;48.238;11.160;2023-06-22T00:04:31;19.50;99.90
5705;DHT22;2877;48.238;11.160;2023-06-22T00:06:57;19.40;99.90
5705;DHT22;2877;48.238;11.160;2023-06-22T00:09:23;19.40;99.90
5705;DHT22;2877;48.238;11.160;2023-06-22T00:11:48;19.40;99.90
5705;DHT22;2877;48.238;11.160;2023-06-22T00:14:14;19.40;99.90
5705;DHT22;2877;48.238;11.160;2023-06-22T00:16:39;19.40;99.90
5705;DHT22;2877;48.238;11.160;2023-06-22T00:19:05;19.40;99.90
5705;DHT22;2877;48.238;11.160;2023-06-22T00:21:31;19.40;99.90
5705;DHT22;2877;48.238;11.160;2023-06-22T00:23:56;19.40;99.90
5705;DHT22;2877;48.238;11.160;2023-06-22T00:26:23;19.40;99.90
5705;DHT22;2877;48.238;11.160;2023-06-22T00:28:48;19.30;99.90
5705;DHT22;2877;48.238;11.160;2023-06-22T00:31:14;19.40;99.90
5705;DHT22;2877;48.238;11.160;2023-06-22T00:33:39;19.30;99.90
5705;DHT22;2877;48.238;11.160;2023-06-22T00:36:05;19.30;99.90
5705;DHT22;2877;48.238;11.160;2023-06-22T00:38:33;19.30;99.90
5705;DHT22;2877;48.238;11.160;2023-06-22T00:40:58;19.30;99.90
5705;DHT22;2877;48.238;11.160;2023-06-22T00:43:24;19.30;99.90
5705;DHT22;2877;48.238;11.160;2023-06-22T00:45:49;19.20;99.90
5705;DHT22;2877;48.238;11.160;2023-06-22T00:48:15;19.20;99.90
5705;DHT22;2877;48.238;11.160;2023-06-22T00:50:41;19.20;99.90
5705;DHT22;2877;48.238;11.160;2023-06-22T00:53:08;19.20;99.90
5705;DHT22;2877;48.238;11.160;2023-06-22T00:55:36;19.20;99.90
5705;DHT22;2877;48.238;11.160;2023-06-22T00:58:03;19.10;99.90
5705;DHT22;2877;48.238;11.160;2023-06-22T01:00:31;19.20;99.90
5705;DHT22;2877;48.238;11.160;2023-06-22T01:02:58;19.10;99.90
5705;DHT22;2877;48.238;11.160;2023-06-22T01:05:23;19.10;99.90
5705;DHT22;2877;48.238;11.160;2023-06-22T01:08:16;19.00;99.90
5705;DHT22;2877;48.238;11.160;2023-06-22T01:11:10;18.90;99.90
5705;DHT22;2877;48.238;11.160;2023-06-22T01:13:48;18.80;99.90
5705;DHT22;2877;48.238;11.160;2023-06-22T01:18:46;18.80;99.90
5705;DHT22;2877;48.238;11.160;2023-06-22T01:21:16;18.80;99.90
5705;DHT22;2877;48.238;11.160;2023-06-22T01:23:55;18.80;99.90
5705;DHT22;2877;48.238;11.160;2023-06-22T01:29:12;18.70;99.90
5705;DHT22;2877;48.238;11.160;2023-06-22T01:31:40;18.70;99.90
5705;DHT22;2877;48.238;11.160;2023-06-22T01:34:08;18.60;99.90
5705;DHT22;2877;48.238;11.160;2023-06-22T01:36:35;18.60;99.90
5705;DHT22;2877;48.238;11.160;2023-06-22T01:39:02;18.60;99.90
5705;DHT22;2877;48.238;11.160;2023-06-22T01:41:30;18.50;99.90
5705;DHT22;2877;48.238;11.160;2023-06-22T01:43:56;18.50;99.90
5705;DHT22;2877;48.238;11.160;2023-06-22T01:46:23;18.50;99.90
5705;DHT22;2877;48.238;11.160;2023-06-22T01:48:49;18.40;99.90
5705;DHT22;2877;48.238;11.160;2023-06-22T01:51:15;18.40;99.90
5705;DHT22;2877;48.238;11.160;2023-06-22T01:53:41;18.30;99.90
5705;DHT22;2877;48.238;11.160;2023-06-22T01:56:08;18.30;99.90
5705;DHT22;2877;48.238;11.160;2023-06-22T01:58:33;18.30;99.90
5705;DHT22;2877;48.238;11.160;2023-06-22T02:01:10;18.20;99.90
5705;DHT22;2877;48.238;11.160;2023-06-22T02:03:46;18.20;99.90
5705;DHT22;2877;48.238;11.160;2023-06-22T02:06:20;18.10;99.90
5705;DHT22;2877;48.238;11.160;2023-06-22T02:08:50;18.10;99.90
5705;DHT22;2877;48.238;11.160;2023-06-22T02:11:18;18.10;99.90
5705;DHT22;2877;48.238;11.160;2023-06-22T02:13:45;18.10;99.90
5705;DHT22;2877;48.238;11.160;2023-06-22T02:16:11;18.10;99.90
5705;DHT22;2877;48.238;11.160;2023-06-22T02:18:38;18.10;99.90
5705;DHT22;2877;48.238;11.160;2023-06-22T02:21:05;18.10;99.90
5705;DHT22;2877;48.238;11.160;2023-06-22T02:23:31;18.10;99.90
5705;DHT22;2877;48.238;11.160;2023-06-22T02:26:00;18.00;99.90
5705;DHT22;2877;48.238;11.160;2023-06-22T02:28:26;18.00;99.90
5705;DHT22;2877;48.238;11.160;2023-06-22T02:30:51;17.90;99.90
5705;DHT22;2877;48.238;11.160;2023-06-22T02:33:17;17.90;99.90
5705;DHT22;2877;48.238;11.160;2023-06-22T02:35:42;17.80;99.90
5705;DHT22;2877;48.238;11.160;2023-06-22T02:38:10;17.70;99.90
5705;DHT22;2877;48.238;11.160;2023-06-22T02:40:36;17.80;99.90
5705;DHT22;2877;48.238;11.160;2023-06-22T02:43:02;17.80;99.90
5705;DHT22;2877;48.238;11.160;2023-06-22T02:45:28;17.70;99.90
5705;DHT22;2877;48.238;11.160;2023-06-22T02:47:54;17.70;99.90
5705;DHT22;2877;48.238;11.160;2023-06-22T02:50:20;17.70;99.90
5705;DHT22;2877;48.238;11.160;2023-06-22T02:52:45;17.60;99.90
5705;DHT22;2877;48.238;11.160;2023-06-22T02:55:11;17.60;99.90
5705;DHT22;2877;48.238;11.160;2023-06-22T02:57:37;17.60;99.90
5705;DHT22;2877;48.238;11.160;2023-06-22T03:00:04;17.60;99.90
5705;DHT22;2877;48.238;11.160;2023-06-22T03:02:42;17.60;99.90
5705;DHT22;2877;48.238;11.160;2023-06-22T03:05:07;17.60;99.90
5705;DHT22;2877;48.238;11.160;2023-06-22T03:07:40;17.60;99.90
5705;DHT22;2877;48.238;11.160;2023-06-22T03:10:07;17.60;99.90
5705;DHT22;2877;48.238;11.160;2023-06-22T03:12:32;17.50;99.90
5705;DHT22;2877;48.238;11.160;2023-06-22T03:14:58;17.50;99.90
5705;DHT22;2877;48.238;11.160;2023-06-22T03:17:24;17.50;99.90
5705;DHT22;2877;48.238;11.160;2023-06-22T03:19:50;17.40;99.90
5705;DHT22;2877;48.238;11.160;2023-06-22T03:22:15;17.40;99.90
5705;DHT22;2877;48.238;11.160;2023-06-22T03:24:41;17.50;99.90
5705;DHT22;2877;48.238;11.160;2023-06-22T03:27:06;17.50;99.90
5705;DHT22;2877;48.238;11.160;2023-06-22T03:29:32;17.40;99.90
5705;DHT22;2877;48.238;11.160;2023-06-22T03:31:57;17.40;99.90
5705;DHT22;2877;48.238;11.160;2023-06-22T03:34:23;17.40;99.90
5705;DHT22;2877;48.238;11.160;2023-06-22T03:36:48;17.40;99.90
5705;DHT22;2877;48.238;11.160;2023-06-22T03:39:14;17.40;99.90
5705;DHT22;2877;48.238;11.160;2023-06-22T03:41:39;17.40;99.90
5705;DHT22;2877;48.238;11.160;2023-06-22T03:44:05;17.40;99.90
5705;DHT22;2877;48.238;11.160;2023-06-22T03:46:30;17.30;99.90
5705;DHT22;2877;48.238;11.160;2023-06-22T03:48:56;17.30;99.90
5705;DHT22;2877;48.238;11.160;2023-06-22T03:51:22;17.40;99.90
5705;DHT22;2877;48.238;11.160;2023-06-22T03:53:48;17.40;99.90
5705;DHT22;2877;48.238;11.160;2023-06-22T03:56:13;17.50;99.90
5705;DHT22;2877;48.238;11.160;2023-06-22T03:58:45;17.50;99.90
5705;DHT22;2877;48.238;11.160;2023-06-22T04:01:11;17.60;99.90
5705;DHT22;2877;48.238;11.160;2023-06-22T04:03:37;17.60;99.90
5705;DHT22;2877;48.238;11.160;2023-06-22T04:06:03;17.60;99.90
5705;DHT22;2877;48.238;11.160;2023-06-22T04:08:29;17.70;99.90
5705;DHT22;2877;48.238;11.160;2023-06-22T04:10:54;17.70;99.90
5705;DHT22;2877;48.238;11.160;2023-06-22T04:13:20;17.80;99.90
5705;DHT22;2877;48.238;11.160;2023-06-22T04:15:45;17.80;99.90
5705;DHT22;2877;48.238;11.160;2023-06-22T04:18:11;17.90;99.90
5705;DHT22;2877;48.238;11.160;2023-06-22T04:20:37;18.00;99.90
5705;DHT22;2877;48.238;11.160;2023-06-22T04:23:02;18.00;99.90
5705;DHT22;2877;48.238;11.160;2023-06-22T04:25:28;18.10;99.90
5705;DHT22;2877;48.238;11.160;2023-06-22T04:27:53;18.20;99.90
5705;DHT22;2877;48.238;11.160;2023-06-22T04:30:19;18.20;99.90
5705;DHT22;2877;48.238;11.160;2023-06-22T04:32:45;18.30;99.90
5705;DHT22;2877;48.238;11.160;2023-06-22T04:35:11;18.40;99.90
5705;DHT22;2877;48.238;11.160;2023-06-22T04:37:37;18.40;99.90
5705;DHT22;2877;48.238;11.160;2023-06-22T04:40:03;18.50;99.90
5705;DHT22;2877;48.238;11.160;2023-06-22T04:42:30;18.60;99.90
5705;DHT22;2877;48.238;11.160;2023-06-22T04:44:57;18.70;99.90
5705;DHT22;2877;48.238;11.160;2023-06-22T04:47:22;18.80;99.90
5705;DHT22;2877;48.238;11.160;2023-06-22T04:49:48;18.70;99.90
5705;DHT22;2877;48.238;11.160;2023-06-22T04:52:14;18.80;99.90
5705;DHT22;2877;48.238;11.160;2023-06-22T04:54:43;18.90;99.90
5705;DHT22;2877;48.238;11.160;2023-06-22T04:57:16;19.00;99.90
5705;DHT22;2877;48.238;11.160;2023-06-22T04:59:41;19.10;99.90
5705;DHT22;2877;48.238;11.160;2023-06-22T05:02:07;19.10;99.90
5705;DHT22;2877;48.238;11.160;2023-06-22T05:04:34;19.20;99.90
5705;DHT22;2877;48.238;11.160;2023-06-22T05:07:01;19.20;99.90
5705;DHT22;2877;48.238;11.160;2023-06-22T05:09:28;19.30;99.90
5705;DHT22;2877;48.238;11.160;2023-06-22T05:11:53;19.30;99.90
5705;DHT22;2877;48.238;11.160;2023-06-22T05:14:19;19.40;99.90
5705;DHT22;2877;48.238;11.160;2023-06-22T05:16:45;19.50;99.90
5705;DHT22;2877;48.238;11.160;2023-06-22T05:19:11;19.60;99.90
5705;DHT22;2877;48.238;11.160;2023-06-22T05:21:38;19.60;99.90
5705;DHT22;2877;48.238;11.160;2023-06-22T05:24:04;19.70;99.90
5705;DHT22;2877;48.238;11.160;2023-06-22T05:26:34;19.80;99.90
5705;DHT22;2877;48.238;11.160;2023-06-22T05:29:01;19.80;99.90
5705;DHT22;2877;48.238;11.160;2023-06-22T05:31:27;19.90;99.90
5705;DHT22;2877;48.238;11.160;2023-06-22T05:33:54;20.00;99.90
5705;DHT22;2877;48.238;11.160;2023-06-22T05:36:20;20.10;99.90
5705;DHT22;2877;48.238;11.160;2023-06-22T05:38:47;20.20;99.90
5705;DHT22;2877;48.238;11.160;2023-06-22T05:41:13;20.30;99.90
5705;DHT22;2877;48.238;11.160;2023-06-22T05:43:39;20.40;99.90
5705;DHT22;2877;48.238;11.160;2023-06-22T05:46:05;20.50;99.90
5705;DHT22;2877;48.238;11.160;2023-06-22T05:48:30;20.50;99.90
5705;DHT22;2877;48.238;11.160;2023-06-22T05:50:56;20.60;99.90
5705;DHT22;2877;48.238;11.160;2023-06-22T05:53:22;20.70;99.90
5705;DHT22;2877;48.238;11.160;2023-06-22T05:55:48;20.90;99.90
5705;DHT22;2877;48.238;11.160;2023-06-22T05:58:13;20.90;99.90
5705;DHT22;2877;48.238;11.160;2023-06-22T06:00:39;21.00;99.90
5705;DHT22;2877;48.238;11.160;2023-06-22T06:03:06;21.00;99.90
5705;DHT22;2877;48.238;11.160;2023-06-22T06:05:32;21.10;99.90
5705;DHT22;2877;48.238;11.160;2023-06-22T06:08:00;21.20;99.90
5705;DHT22;2877;48.238;11.160;2023-06-22T06:10:25;21.30;99.90
5705;DHT22;2877;48.238;11.160;2023-06-22T06:12:52;21.40;99.90
5705;DHT22;2877;48.238;11.160;2023-06-22T06:15:17;21.40;99.90
5705;DHT22;2877;48.238;11.160;2023-06-22T06:17:53;21.50;99.90
5705;DHT22;2877;48.238;11.160;2023-06-22T06:20:20;21.60;99.90
5705;DHT22;2877;48.238;11.160;2023-06-22T06:22:47;21.80;99.90
5705;DHT22;2877;48.238;11.160;2023-06-22T06:25:12;21.90;99.90
5705;DHT22;2877;48.238;11.160;2023-06-22T06:27:42;21.90;99.90
5705;DHT22;2877;48.238;11.160;2023-06-22T06:30:09;22.10;99.90
5705;DHT22;2877;48.238;11.160;2023-06-22T06:32:34;22.10;99.90
5705;DHT22;2877;48.238;11.160;2023-06-22T06:35:00;22.20;99.90
5705;DHT22;2877;48.238;11.160;2023-06-22T06:37:25;22.40;99.90
5705;DHT22;2877;48.238;11.160;2023-06-22T06:39:51;22.50;99.90
5705;DHT22;2877;48.238;11.160;2023-06-22T06:42:16;22.70;99.90
5705;DHT22;2877;48.238;11.160;2023-06-22T06:44:43;22.80;99.90
5705;DHT22;2877;48.238;11.160;2023-06-22T06:47:09;22.90;99.90
5705;DHT22;2877;48.238;11.160;2023-06-22T06:49:34;23.00;99.90
5705;DHT22;2877;48.238;11.160;2023-06-22T06:52:00;23.00;99.90
5705;DHT22;2877;48.238;11.160;2023-06-22T06:54:26;23.00;99.90
5705;DHT22;2877;48.238;11.160;2023-06-22T06:56:52;23.00;99.90
5705;DHT22;2877;48.238;11.160;2023-06-22T06:59:18;23.10;99.90
5705;DHT22;2877;48.238;11.160;2023-06-22T07:01:44;23.30;99.90
5705;DHT22;2877;48.238;11.160;2023-06-22T07:04:10;23.40;99.90
5705;DHT22;2877;48.238;11.160;2023-06-22T07:06:35;23.50;99.90
5705;DHT22;2877;48.238;11.160;2023-06-22T07:09:01;23.60;99.90
5705;DHT22;2877;48.238;11.160;2023-06-22T07:11:27;23.60;99.90
5705;DHT22;2877;48.238;11.160;2023-06-22T07:13:52;23.80;99.90
5705;DHT22;2877;48.238;11.160;2023-06-22T07:16:18;23.90;99.90
5705;DHT22;2877;48.238;11.160;2023-06-22T07:18:43;24.00;99.90
5705;DHT22;2877;48.238;11.160;2023-06-22T07:21:09;24.10;99.90
5705;DHT22;2877;48.238;11.160;2023-06-22T07:23:35;24.20;99.90
5705;DHT22;2877;48.238;11.160;2023-06-22T07:26:00;24.20;99.90
5705;DHT22;2877;48.238;11.160;2023-06-22T07:28:27;24.20;99.90
5705;DHT22;2877;48.238;11.160;2023-06-22T07:30:54;24.20;99.90
5705;DHT22;2877;48.238;11.160;2023-06-22T07:33:20;24.20;99.90
5705;DHT22;2877;48.238;11.160;2023-06-22T07:35:46;24.40;99.90
5705;DHT22;2877;48.238;11.160;2023-06-22T07:38:13;24.60;99.90
5705;DHT22;2877;48.238;11.160;2023-06-22T07:40:40;24.70;99.90
5705;DHT22;2877;48.238;11.160;2023-06-22T07:43:07;24.90;99.90
5705;DHT22;2877;48.238;11.160;2023-06-22T07:45:32;24.90;99.90
5705;DHT22;2877;48.238;11.160;2023-06-22T07:48:00;25.00;99.90
5705;DHT22;2877;48.238;11.160;2023-06-22T07:50:26;25.20;99.90
5705;DHT22;2877;48.238;11.160;2023-06-22T07:52:51;25.40;99.90
5705;DHT22;2877;48.238;11.160;2023-06-22T07:55:18;25.50;99.90
5705;DHT22;2877;48.238;11.160;2023-06-22T07:57:43;25.60;99.90
5705;DHT22;2877;48.238;11.160;2023-06-22T08:00:09;25.80;99.90
5705;DHT22;2877;48.238;11.160;2023-06-22T08:02:41;26.00;99.90
5705;DHT22;2877;48.238;11.160;2023-06-22T08:05:08;26.10;99.90
5705;DHT22;2877;48.238;11.160;2023-06-22T08:07:35;26.10;99.90
5705;DHT22;2877;48.238;11.160;2023-06-22T08:10:02;26.10;99.90
5705;DHT22;2877;48.238;11.160;2023-06-22T08:12:28;26.30;99.90
5705;DHT22;2877;48.238;11.160;2023-06-22T08:14:53;26.50;99.90
5705;DHT22;2877;48.238;11.160;2023-06-22T08:17:19;26.50;99.90
5705;DHT22;2877;48.238;11.160;2023-06-22T08:19:44;26.60;99.90
5705;DHT22;2877;48.238;11.160;2023-06-22T08:22:10;26.70;99.90
5705;DHT22;2877;48.238;11.160;2023-06-22T08:24:35;26.80;99.90
5705;DHT22;2877;48.238;11.160;2023-06-22T08:27:01;26.80;99.90
5705;DHT22;2877;48.238;11.160;2023-06-22T08:29:26;27.00;99.90
5705;DHT22;2877;48.238;11.160;2023-06-22T08:31:52;27.10;99.90
5705;DHT22;2877;48.238;11.160;2023-06-22T08:34:17;27.10;99.90
5705;DHT22;2877;48.238;11.160;2023-06-22T08:36:47;27.10;99.90
5705;DHT22;2877;48.238;11.160;2023-06-22T08:39:17;27.20;99.90
5705;DHT22;2877;48.238;11.160;2023-06-22T08:41:42;27.30;99.90
5705;DHT22;2877;48.238;11.160;2023-06-22T08:44:08;27.20;99.90
5705;DHT22;2877;48.238;11.160;2023-06-22T08:46:34;27.10;99.90
5705;DHT22;2877;48.238;11.160;2023-06-22T08:49:00;27.30;99.90
5705;DHT22;2877;48.238;11.160;2023-06-22T08:51:26;27.50;99.90
5705;DHT22;2877;48.238;11.160;2023-06-22T08:53:52;27.60;99.90
5705;DHT22;2877;48.238;11.160;2023-06-22T08:56:17;27.80;99.90
5705;DHT22;2877;48.238;11.160;2023-06-22T08:58:43;28.00;99.90
5705;DHT22;2877;48.238;11.160;2023-06-22T09:01:09;28.10;99.90
5705;DHT22;2877;48.238;11.160;2023-06-22T09:03:34;28.30;99.90
5705;DHT22;2877;48.238;11.160;2023-06-22T09:06:01;28.60;99.90
5705;DHT22;2877;48.238;11.160;2023-06-22T09:08:27;28.70;99.90
5705;DHT22;2877;48.238;11.160;2023-06-22T09:10:52;28.70;99.90
5705;DHT22;2877;48.238;11.160;2023-06-22T09:13:18;28.70;99.90
5705;DHT22;2877;48.238;11.160;2023-06-22T09:15:44;28.90;99.90
5705;DHT22;2877;48.238;11.160;2023-06-22T09:18:13;28.90;99.90
5705;DHT22;2877;48.238;11.160;2023-06-22T09:20:39;28.90;99.90
5705;DHT22;2877;48.238;11.160;2023-06-22T09:23:04;29.20;99.90
5705;DHT22;2877;48.238;11.160;2023-06-22T09:25:30;29.40;99.90
5705;DHT22;2877;48.238;11.160;2023-06-22T09:27:55;29.50;99.60
5705;DHT22;2877;48.238;11.160;2023-06-22T09:30:21;29.70;99.30
5705;DHT22;2877;48.238;11.160;2023-06-22T09:32:47;30.00;97.60
5705;DHT22;2877;48.238;11.160;2023-06-22T09:35:13;30.00;97.80
5705;DHT22;2877;48.238;11.160;2023-06-22T09:37:39;30.00;97.50
5705;DHT22;2877;48.238;11.160;2023-06-22T09:40:06;29.90;97.60
5705;DHT22;2877;48.238;11.160;2023-06-22T09:42:36;29.90;96.10
5705;DHT22;2877;48.238;11.160;2023-06-22T09:45:02;29.90;96.10
5705;DHT22;2877;48.238;11.160;2023-06-22T09:47:29;30.00;95.00
5705;DHT22;2877;48.238;11.160;2023-06-22T09:49:54;30.30;95.50
5705;DHT22;2877;48.238;11.160;2023-06-22T09:52:21;30.30;95.50
5705;DHT22;2877;48.238;11.160;2023-06-22T09:54:47;30.50;94.80
5705;DHT22;2877;48.238;11.160;2023-06-22T09:57:12;30.60;94.10
5705;DHT22;2877;48.238;11.160;2023-06-22T09:59:38;30.80;93.50
5705;DHT22;2877;48.238;11.160;2023-06-22T10:02:06;31.00;92.90
5705;DHT22;2877;48.238;11.160;2023-06-22T10:04:32;31.20;93.40
5705;DHT22;2877;48.238;11.160;2023-06-22T10:06:58;31.40;92.00
5705;DHT22;2877;48.238;11.160;2023-06-22T10:09:23;31.50;91.70
5705;DHT22;2877;48.238;11.160;2023-06-22T10:11:49;31.80;91.70
5705;DHT22;2877;48.238;11.160;2023-06-22T10:14:14;32.00;90.60
5705;DHT22;2877;48.238;11.160;2023-06-22T10:16:40;32.00;90.50
5705;DHT22;2877;48.238;11.160;2023-06-22T10:19:06;32.00;90.00
5705;DHT22;2877;48.238;11.160;2023-06-22T10:21:32;32.00;89.10
5705;DHT22;2877;48.238;11.160;2023-06-22T10:23:58;32.10;87.40
5705;DHT22;2877;48.238;11.160;2023-06-22T10:26:24;32.40;86.50
5705;DHT22;2877;48.238;11.160;2023-06-22T10:28:50;32.80;86.70
5705;DHT22;2877;48.238;11.160;2023-06-22T10:31:16;33.00;85.00
5705;DHT22;2877;48.238;11.160;2023-06-22T10:33:42;33.10;82.50
5705;DHT22;2877;48.238;11.160;2023-06-22T10:36:10;33.50;82.60
5705;DHT22;2877;48.238;11.160;2023-06-22T10:38:35;33.50;80.80
5705;DHT22;2877;48.238;11.160;2023-06-22T10:41:01;33.20;80.90
5705;DHT22;2877;48.238;11.160;2023-06-22T10:43:26;33.10;81.50
5705;DHT22;2877;48.238;11.160;2023-06-22T10:45:52;32.90;80.40
5705;DHT22;2877;48.238;11.160;2023-06-22T10:48:17;32.90;81.80
5705;DHT22;2877;48.238;11.160;2023-06-22T10:50:43;33.00;81.20
5705;DHT22;2877;48.238;11.160;2023-06-22T10:53:08;33.10;79.10
5705;DHT22;2877;48.238;11.160;2023-06-22T10:55:34;33.30;78.80
5705;DHT22;2877;48.238;11.160;2023-06-22T10:57:59;33.40;78.40
5705;DHT22;2877;48.238;11.160;2023-06-22T11:00:25;33.50;76.20
5705;DHT22;2877;48.238;11.160;2023-06-22T11:02:51;33.60;77.50
5705;DHT22;2877;48.238;11.160;2023-06-22T11:05:16;33.50;76.40
5705;DHT22;2877;48.238;11.160;2023-06-22T11:07:43;33.40;76.90
5705;DHT22;2877;48.238;11.160;2023-06-22T11:10:09;33.50;76.50
5705;DHT22;2877;48.238;11.160;2023-06-22T11:12:35;33.70;76.50
5705;DHT22;2877;48.238;11.160;2023-06-22T11:15:01;33.80;75.50
5705;DHT22;2877;48.238;11.160;2023-06-22T11:17:27;34.10;72.50
5705;DHT22;2877;48.238;11.160;2023-06-22T11:19:52;34.50;73.30
5705;DHT22;2877;48.238;11.160;2023-06-22T11:22:18;34.40;72.10
5705;DHT22;2877;48.238;11.160;2023-06-22T11:24:43;34.40;72.60
5705;DHT22;2877;48.238;11.160;2023-06-22T11:27:09;34.70;71.70
5705;DHT22;2877;48.238;11.160;2023-06-22T11:29:34;34.80;71.80
5705;DHT22;2877;48.238;11.160;2023-06-22T11:32:01;34.60;69.80
5705;DHT22;2877;48.238;11.160;2023-06-22T11:34:26;34.40;68.50
5705;DHT22;2877;48.238;11.160;2023-06-22T11:36:53;34.40;67.60
5705;DHT22;2877;48.238;11.160;2023-06-22T11:39:18;34.80;67.20
5705;DHT22;2877;48.238;11.160;2023-06-22T11:41:44;35.30;68.00
5705;DHT22;2877;48.238;11.160;2023-06-22T11:44:10;35.90;67.10
5705;DHT22;2877;48.238;11.160;2023-06-22T11:46:35;36.20;64.80
5705;DHT22;2877;48.238;11.160;2023-06-22T11:49:01;35.80;63.30
5705;DHT22;2877;48.238;11.160;2023-06-22T11:51:27;35.10;64.30
5705;DHT22;2877;48.238;11.160;2023-06-22T11:53:53;35.00;64.40
5705;DHT22;2877;48.238;11.160;2023-06-22T11:56:19;35.00;65.80
5705;DHT22;2877;48.238;11.160;2023-06-22T11:58:44;34.60;67.60
5705;DHT22;2877;48.238;11.160;2023-06-22T12:01:10;34.40;67.80
5705;DHT22;2877;48.238;11.160;2023-06-22T12:03:35;34.70;67.80
5705;DHT22;2877;48.238;11.160;2023-06-22T12:06:01;35.30;67.20
5705;DHT22;2877;48.238;11.160;2023-06-22T12:08:27;35.90;64.50
5705;DHT22;2877;48.238;11.160;2023-06-22T12:10:52;36.30;62.70
5705;DHT22;2877;48.238;11.160;2023-06-22T12:13:19;36.40;63.00
5705;DHT22;2877;48.238;11.160;2023-06-22T12:15:44;36.10;63.50
5705;DHT22;2877;48.238;11.160;2023-06-22T12:18:10;35.70;64.60
5705;DHT22;2877;48.238;11.160;2023-06-22T12:20:36;35.40;65.80
5705;DHT22;2877;48.238;11.160;2023-06-22T12:23:02;35.50;64.00
5705;DHT22;2877;48.238;11.160;2023-06-22T12:25:28;35.80;64.40
5705;DHT22;2877;48.238;11.160;2023-06-22T12:27:53;36.00;64.30
5705;DHT22;2877;48.238;11.160;2023-06-22T12:30:19;35.90;63.70
5705;DHT22;2877;48.238;11.160;2023-06-22T12:32:44;35.90;64.00
5705;DHT22;2877;48.238;11.160;2023-06-22T12:35:10;35.50;63.70
5705;DHT22;2877;48.238;11.160;2023-06-22T12:37:40;35.50;64.40
5705;DHT22;2877;48.238;11.160;2023-06-22T12:40:07;35.20;64.90
5705;DHT22;2877;48.238;11.160;2023-06-22T12:42:32;35.20;65.50
5705;DHT22;2877;48.238;11.160;2023-06-22T12:44:58;35.50;64.10
5705;DHT22;2877;48.238;11.160;2023-06-22T12:47:23;35.60;63.90
5705;DHT22;2877;48.238;11.160;2023-06-22T12:49:49;36.00;64.60
5705;DHT22;2877;48.238;11.160;2023-06-22T12:52:14;36.30;62.00
5705;DHT22;2877;48.238;11.160;2023-06-22T12:54:40;36.30;60.50
5705;DHT22;2877;48.238;11.160;2023-06-22T12:57:06;36.60;60.00
5705;DHT22;2877;48.238;11.160;2023-06-22T12:59:31;37.40;60.90
5705;DHT22;2877;48.238;11.160;2023-06-22T13:01:57;37.90;59.30
5705;DHT22;2877;48.238;11.160;2023-06-22T13:04:22;38.50;59.20
5705;DHT22;2877;48.238;11.160;2023-06-22T13:06:48;38.80;57.50
5705;DHT22;2877;48.238;11.160;2023-06-22T13:09:14;38.50;56.30
5705;DHT22;2877;48.238;11.160;2023-06-22T13:11:41;38.10;56.40
5705;DHT22;2877;48.238;11.160;2023-06-22T13:14:06;37.90;57.50
5705;DHT22;2877;48.238;11.160;2023-06-22T13:16:32;38.20;57.30
5705;DHT22;2877;48.238;11.160;2023-06-22T13:18:58;39.30;55.20
5705;DHT22;2877;48.238;11.160;2023-06-22T13:21:23;40.20;53.60
5705;DHT22;2877;48.238;11.160;2023-06-22T13:23:49;40.80;51.40
5705;DHT22;2877;48.238;11.160;2023-06-22T13:26:14;40.90;51.60
5705;DHT22;2877;48.238;11.160;2023-06-22T13:28:40;41.30;50.30
5705;DHT22;2877;48.238;11.160;2023-06-22T13:31:05;42.30;50.00
5705;DHT22;2877;48.238;11.160;2023-06-22T13:33:31;42.80;46.80
5705;DHT22;2877;48.238;11.160;2023-06-22T13:35:56;42.50;46.00
5705;DHT22;2877;48.238;11.160;2023-06-22T13:38:22;42.30;45.70
5705;DHT22;2877;48.238;11.160;2023-06-22T13:40:48;42.30;46.10
5705;DHT22;2877;48.238;11.160;2023-06-22T13:43:14;43.10;44.70
5705;DHT22;2877;48.238;11.160;2023-06-22T13:45:40;43.90;44.40
5705;DHT22;2877;48.238;11.160;2023-06-22T13:48:06;43.80;43.50
5705;DHT22;2877;48.238;11.160;2023-06-22T13:50:31;43.90;41.80
5705;DHT22;2877;48.238;11.160;2023-06-22T13:52:57;44.40;41.20
5705;DHT22;2877;48.238;11.160;2023-06-22T13:55:22;45.00;40.70
5705;DHT22;2877;48.238;11.160;2023-06-22T13:57:48;45.60;40.00
5705;DHT22;2877;48.238;11.160;2023-06-22T14:00:14;46.20;39.30
5705;DHT22;2877;48.238;11.160;2023-06-22T14:02:40;46.00;38.20
5705;DHT22;2877;48.238;11.160;2023-06-22T14:05:07;45.80;38.50
5705;DHT22;2877;48.238;11.160;2023-06-22T14:07:33;44.80;38.10
5705;DHT22;2877;48.238;11.160;2023-06-22T14:10:00;44.80;38.10
5705;DHT22;2877;48.238;11.160;2023-06-22T14:12:25;45.30;38.60
5705;DHT22;2877;48.238;11.160;2023-06-22T14:14:51;45.60;38.90
5705;DHT22;2877;48.238;11.160;2023-06-22T14:17:18;45.20;37.80
5705;DHT22;2877;48.238;11.160;2023-06-22T14:19:49;45.10;38.50
5705;DHT22;2877;48.238;11.160;2023-06-22T14:22:15;45.10;37.50
5705;DHT22;2877;48.238;11.160;2023-06-22T14:24:40;45.00;36.50
5705;DHT22;2877;48.238;11.160;2023-06-22T14:27:06;44.60;37.50
5705;DHT22;2877;48.238;11.160;2023-06-22T14:29:34;43.80;38.00
5705;DHT22;2877;48.238;11.160;2023-06-22T14:31:59;43.20;39.40
5705;DHT22;2877;48.238;11.160;2023-06-22T14:34:25;42.80;40.00
5705;DHT22;2877;48.238;11.160;2023-06-22T14:36:50;43.20;39.70
5705;DHT22;2877;48.238;11.160;2023-06-22T14:39:16;43.10;39.30
5705;DHT22;2877;48.238;11.160;2023-06-22T14:41:41;43.10;38.60
5705;DHT22;2877;48.238;11.160;2023-06-22T14:44:07;43.30;36.60
5705;DHT22;2877;48.238;11.160;2023-06-22T14:46:32;42.80;37.30
5705;DHT22;2877;48.238;11.160;2023-06-22T14:48:58;43.10;37.30
5705;DHT22;2877;48.238;11.160;2023-06-22T14:51:24;43.60;36.70
5705;DHT22;2877;48.238;11.160;2023-06-22T14:53:49;43.40;35.90
5705;DHT22;2877;48.238;11.160;2023-06-22T14:56:15;43.40;37.60
5705;DHT22;2877;48.238;11.160;2023-06-22T14:58:41;44.00;36.30
5705;DHT22;2877;48.238;11.160;2023-06-22T15:01:11;44.00;35.50
5705;DHT22;2877;48.238;11.160;2023-06-22T15:03:37;43.20;32.60
5705;DHT22;2877;48.238;11.160;2023-06-22T15:06:03;42.10;34.00
5705;DHT22;2877;48.238;11.160;2023-06-22T15:08:29;40.90;33.60
5705;DHT22;2877;48.238;11.160;2023-06-22T15:10:55;41.00;34.30
5705;DHT22;2877;48.238;11.160;2023-06-22T15:13:23;41.40;37.50
5705;DHT22;2877;48.238;11.160;2023-06-22T15:15:49;41.90;38.30
5705;DHT22;2877;48.238;11.160;2023-06-22T15:18:15;42.70;37.10
5705;DHT22;2877;48.238;11.160;2023-06-22T15:20:41;42.40;35.90
5705;DHT22;2877;48.238;11.160;2023-06-22T15:23:10;41.90;36.30
5705;DHT22;2877;48.238;11.160;2023-06-22T15:25:35;41.00;37.80
5705;DHT22;2877;48.238;11.160;2023-06-22T15:28:01;40.00;39.00
5705;DHT22;2877;48.238;11.160;2023-06-22T15:30:27;39.30;40.00
5705;DHT22;2877;48.238;11.160;2023-06-22T15:32:52;38.80;41.30
5705;DHT22;2877;48.238;11.160;2023-06-22T15:35:18;38.80;41.70
5705;DHT22;2877;48.238;11.160;2023-06-22T15:37:44;38.50;40.80
5705;DHT22;2877;48.238;11.160;2023-06-22T15:40:10;37.90;40.60
5705;DHT22;2877;48.238;11.160;2023-06-22T15:42:36;37.60;41.90
5705;DHT22;2877;48.238;11.160;2023-06-22T15:45:02;37.20;42.70